Startpagina
METAR-TAF:

METAR-TAF

Vliegvelden :

Miami, Florida, Verenigde Staten

Internationale Luchthaven Miami

breedte: 25-47-26N, lengte: 080-18-59W, hoogte: 3 m

Actueel weer

Dit bericht is 33 minuten geleden gemaakt, om 09:53 UTC
Weinig wind
Temperatuur 27°C
Vochtigheid 84%
Druk 1013 hPa
Zicht: 16.1 km
Weinig wolken op 2300 ft
Verspreide wolken op 8000 ft
Verspreide wolken op 25000 ft

METAR: KMIA 210953Z 00000KT 10SM FEW023 SCT080 SCT250 27/24 A2992 RMK AO2 SLP133 T02720244

Tijdstip: 06:26 (10:26 UTC)

Verwachting

Dit bericht is 1 uur en het 28 minuten geleden gemaakt, om 08:58 UTC
Verwachting geldig van 21 om 09 UTC tot 22 om 06 UTC
Wind 2 kt uit variabele richting
Zicht: 10 km
Weinig wolken op 2300 ft
Verspreide wolken op 25000 ft
Van 21 om 1400 UTC
Wind 8 kt uit het noordoosten
Zicht: 10 km
Verspreide wolken op 3500 ft
Van 21 om 2300 UTC
Wind 5 kt uit het oosten
Zicht: 10 km
Verspreide wolken op 2500 ft

TAF: KMIA 210858Z 2109/2206 VRB02KT P6SM FEW023 SCT250 FM211400 05008KT P6SM SCT035 FM212300 08005KT P6SM SCT025

Waarnemingen en weersverwachtingen van meer dan 4000 vliegvelden (METAR en TAF).

De beschikbare stations zijn de gele en rode punten op de kaart.

Ga met uw muis naar het station om de naam te zien.

Klik dan om waarnemingen en weersverwachtingen te zien.

kaart wijzigen: klik op de groene knoppen met een zwart kruis om in te zoomen, op de groene knop met een streepje om uit te zoomen of op de groene pijlen voor aangrenzende kaarten.


METAR-TAF: